sensor_id;sensor_type;location;lat;lon;timestamp;P1;durP1;ratioP1;P2;durP2;ratioP2
13731;SDS011;6937;56.096;12.664;2023-04-28T00:01:59;3.85;;;1.65;;
13731;SDS011;6937;56.096;12.664;2023-04-28T00:04:25;3.60;;;1.50;;
13731;SDS011;6937;56.096;12.664;2023-04-28T00:06:50;5.38;;;1.90;;
13731;SDS011;6937;56.096;12.664;2023-04-28T00:09:16;5.15;;;1.90;;
13731;SDS011;6937;56.096;12.664;2023-04-28T00:11:43;3.38;;;1.60;;
13731;SDS011;6937;56.096;12.664;2023-04-28T00:14:09;5.15;;;1.63;;
13731;SDS011;6937;56.096;12.664;2023-04-28T00:16:34;3.38;;;1.55;;
13731;SDS011;6937;56.096;12.664;2023-04-28T00:19:00;5.85;;;1.90;;
13731;SDS011;6937;56.096;12.664;2023-04-28T00:21:25;6.18;;;1.67;;
13731;SDS011;6937;56.096;12.664;2023-04-28T00:23:52;5.38;;;1.80;;
13731;SDS011;6937;56.096;12.664;2023-04-28T00:26:18;4.88;;;2.05;;
13731;SDS011;6937;56.096;12.664;2023-04-28T00:28:43;6.80;;;2.03;;
13731;SDS011;6937;56.096;12.664;2023-04-28T00:31:09;5.35;;;2.03;;
13731;SDS011;6937;56.096;12.664;2023-04-28T00:33:36;5.32;;;1.70;;
13731;SDS011;6937;56.096;12.664;2023-04-28T00:36:02;6.90;;;2.05;;
13731;SDS011;6937;56.096;12.664;2023-04-28T00:38:28;4.43;;;2.00;;
13731;SDS011;6937;56.096;12.664;2023-04-28T00:40:53;5.43;;;2.33;;
13731;SDS011;6937;56.096;12.664;2023-04-28T00:43:18;7.93;;;2.33;;
13731;SDS011;6937;56.096;12.664;2023-04-28T00:45:44;7.00;;;2.15;;
13731;SDS011;6937;56.096;12.664;2023-04-28T00:48:09;6.20;;;2.10;;
13731;SDS011;6937;56.096;12.664;2023-04-28T00:50:35;7.35;;;2.30;;
13731;SDS011;6937;56.096;12.664;2023-04-28T00:53:01;4.80;;;2.55;;
13731;SDS011;6937;56.096;12.664;2023-04-28T00:55:26;6.60;;;2.25;;
13731;SDS011;6937;56.096;12.664;2023-04-28T00:57:57;4.68;;;2.10;;
13731;SDS011;6937;56.096;12.664;2023-04-28T01:00:23;10.52;;;2.63;;
13731;SDS011;6937;56.096;12.664;2023-04-28T01:02:49;7.72;;;2.28;;
13731;SDS011;6937;56.096;12.664;2023-04-28T01:05:16;5.07;;;1.77;;
13731;SDS011;6937;56.096;12.664;2023-04-28T01:07:42;7.25;;;1.98;;
13731;SDS011;6937;56.096;12.664;2023-04-28T01:10:07;6.72;;;2.08;;
13731;SDS011;6937;56.096;12.664;2023-04-28T01:12:33;5.10;;;1.80;;
13731;SDS011;6937;56.096;12.664;2023-04-28T01:14:58;4.13;;;2.10;;
13731;SDS011;6937;56.096;12.664;2023-04-28T01:17:24;7.53;;;2.17;;
13731;SDS011;6937;56.096;12.664;2023-04-28T01:19:49;7.35;;;2.40;;
13731;SDS011;6937;56.096;12.664;2023-04-28T01:22:16;7.85;;;2.10;;
13731;SDS011;6937;56.096;12.664;2023-04-28T01:24:42;6.65;;;2.47;;
13731;SDS011;6937;56.096;12.664;2023-04-28T01:27:08;7.63;;;2.05;;
13731;SDS011;6937;56.096;12.664;2023-04-28T01:29:33;5.53;;;2.03;;
13731;SDS011;6937;56.096;12.664;2023-04-28T01:31:59;6.75;;;1.77;;
13731;SDS011;6937;56.096;12.664;2023-04-28T01:34:25;6.65;;;2.30;;
13731;SDS011;6937;56.096;12.664;2023-04-28T01:36:50;6.57;;;1.90;;
13731;SDS011;6937;56.096;12.664;2023-04-28T01:39:16;6.63;;;2.00;;
13731;SDS011;6937;56.096;12.664;2023-04-28T01:41:41;9.88;;;2.08;;
13731;SDS011;6937;56.096;12.664;2023-04-28T01:44:06;4.82;;;1.60;;
13731;SDS011;6937;56.096;12.664;2023-04-28T01:46:32;7.70;;;2.22;;
13731;SDS011;6937;56.096;12.664;2023-04-28T01:48:58;7.82;;;2.17;;
13731;SDS011;6937;56.096;12.664;2023-04-28T01:51:24;6.45;;;1.80;;
13731;SDS011;6937;56.096;12.664;2023-04-28T01:53:51;4.80;;;2.00;;
13731;SDS011;6937;56.096;12.664;2023-04-28T01:56:16;8.20;;;2.50;;
13731;SDS011;6937;56.096;12.664;2023-04-28T01:58:42;5.05;;;2.05;;
13731;SDS011;6937;56.096;12.664;2023-04-28T02:01:07;7.93;;;2.22;;
13731;SDS011;6937;56.096;12.664;2023-04-28T02:03:33;7.03;;;1.90;;
13731;SDS011;6937;56.096;12.664;2023-04-28T02:05:58;8.45;;;2.58;;
13731;SDS011;6937;56.096;12.664;2023-04-28T02:08:23;4.78;;;1.75;;
13731;SDS011;6937;56.096;12.664;2023-04-28T02:10:49;6.05;;;1.98;;
13731;SDS011;6937;56.096;12.664;2023-04-28T02:13:14;3.88;;;2.22;;
13731;SDS011;6937;56.096;12.664;2023-04-28T02:15:41;7.28;;;1.90;;
13731;SDS011;6937;56.096;12.664;2023-04-28T02:18:07;4.75;;;2.05;;
13731;SDS011;6937;56.096;12.664;2023-04-28T02:20:32;5.72;;;1.85;;
13731;SDS011;6937;56.096;12.664;2023-04-28T02:22:58;6.50;;;1.92;;
13731;SDS011;6937;56.096;12.664;2023-04-28T02:25:23;8.18;;;2.30;;
13731;SDS011;6937;56.096;12.664;2023-04-28T02:27:48;5.72;;;2.10;;
13731;SDS011;6937;56.096;12.664;2023-04-28T02:30:14;4.55;;;1.75;;
13731;SDS011;6937;56.096;12.664;2023-04-28T02:32:39;7.68;;;2.15;;
13731;SDS011;6937;56.096;12.664;2023-04-28T02:35:05;6.30;;;1.83;;
13731;SDS011;6937;56.096;12.664;2023-04-28T02:37:30;5.32;;;1.85;;
13731;SDS011;6937;56.096;12.664;2023-04-28T02:39:56;6.57;;;2.47;;
13731;SDS011;6937;56.096;12.664;2023-04-28T02:42:22;6.38;;;2.40;;
13731;SDS011;6937;56.096;12.664;2023-04-28T02:44:47;5.82;;;2.13;;
13731;SDS011;6937;56.096;12.664;2023-04-28T02:47:12;7.00;;;2.30;;
13731;SDS011;6937;56.096;12.664;2023-04-28T02:49:38;7.60;;;2.60;;
13731;SDS011;6937;56.096;12.664;2023-04-28T02:52:03;9.43;;;2.40;;
13731;SDS011;6937;56.096;12.664;2023-04-28T02:54:29;4.50;;;2.00;;
13731;SDS011;6937;56.096;12.664;2023-04-28T02:56:54;5.40;;;2.33;;
13731;SDS011;6937;56.096;12.664;2023-04-28T02:59:21;5.07;;;2.17;;
13731;SDS011;6937;56.096;12.664;2023-04-28T03:01:47;7.45;;;2.35;;
13731;SDS011;6937;56.096;12.664;2023-04-28T03:04:13;5.32;;;1.95;;
13731;SDS011;6937;56.096;12.664;2023-04-28T03:06:39;6.60;;;2.42;;
13731;SDS011;6937;56.096;12.664;2023-04-28T03:09:05;8.55;;;2.72;;
13731;SDS011;6937;56.096;12.664;2023-04-28T03:11:31;7.03;;;2.65;;
13731;SDS011;6937;56.096;12.664;2023-04-28T03:13:56;8.00;;;2.10;;
13731;SDS011;6937;56.096;12.664;2023-04-28T03:16:22;7.72;;;2.05;;
13731;SDS011;6937;56.096;12.664;2023-04-28T03:18:47;8.57;;;2.35;;
13731;SDS011;6937;56.096;12.664;2023-04-28T03:21:12;5.78;;;2.45;;
13731;SDS011;6937;56.096;12.664;2023-04-28T03:23:38;3.88;;;2.10;;
13731;SDS011;6937;56.096;12.664;2023-04-28T03:26:03;10.27;;;2.85;;
13731;SDS011;6937;56.096;12.664;2023-04-28T03:28:29;5.78;;;2.33;;
13731;SDS011;6937;56.096;12.664;2023-04-28T03:30:54;6.10;;;2.20;;
13731;SDS011;6937;56.096;12.664;2023-04-28T03:33:20;12.55;;;2.60;;
13731;SDS011;6937;56.096;12.664;2023-04-28T03:35:45;3.88;;;2.20;;
13731;SDS011;6937;56.096;12.664;2023-04-28T03:38:11;5.28;;;2.20;;
13731;SDS011;6937;56.096;12.664;2023-04-28T03:40:36;13.50;;;2.40;;
13731;SDS011;6937;56.096;12.664;2023-04-28T03:43:02;6.53;;;2.22;;
13731;SDS011;6937;56.096;12.664;2023-04-28T03:45:27;6.18;;;1.92;;
13731;SDS011;6937;56.096;12.664;2023-04-28T03:47:52;5.22;;;2.15;;
13731;SDS011;6937;56.096;12.664;2023-04-28T03:50:18;7.13;;;2.40;;
13731;SDS011;6937;56.096;12.664;2023-04-28T03:52:43;4.82;;;2.25;;
13731;SDS011;6937;56.096;12.664;2023-04-28T03:55:09;6.22;;;2.40;;
13731;SDS011;6937;56.096;12.664;2023-04-28T03:57:34;5.65;;;2.33;;
13731;SDS011;6937;56.096;12.664;2023-04-28T04:00:00;6.63;;;2.30;;
13731;SDS011;6937;56.096;12.664;2023-04-28T04:02:25;4.60;;;2.15;;
13731;SDS011;6937;56.096;12.664;2023-04-28T04:04:51;7.15;;;2.58;;
13731;SDS011;6937;56.096;12.664;2023-04-28T04:07:16;6.75;;;2.65;;
13731;SDS011;6937;56.096;12.664;2023-04-28T04:09:41;9.45;;;2.15;;
13731;SDS011;6937;56.096;12.664;2023-04-28T04:12:07;5.25;;;2.38;;
13731;SDS011;6937;56.096;12.664;2023-04-28T04:14:32;4.28;;;2.25;;
13731;SDS011;6937;56.096;12.664;2023-04-28T04:16:57;9.95;;;2.30;;
13731;SDS011;6937;56.096;12.664;2023-04-28T04:19:23;6.78;;;2.70;;
13731;SDS011;6937;56.096;12.664;2023-04-28T04:21:50;4.57;;;2.33;;
13731;SDS011;6937;56.096;12.664;2023-04-28T04:24:16;8.68;;;3.08;;
13731;SDS011;6937;56.096;12.664;2023-04-28T04:26:42;6.32;;;2.38;;
13731;SDS011;6937;56.096;12.664;2023-04-28T04:29:07;6.25;;;2.22;;
13731;SDS011;6937;56.096;12.664;2023-04-28T04:31:33;7.85;;;2.45;;
13731;SDS011;6937;56.096;12.664;2023-04-28T04:33:58;7.55;;;2.72;;
13731;SDS011;6937;56.096;12.664;2023-04-28T04:36:23;6.85;;;2.30;;
13731;SDS011;6937;56.096;12.664;2023-04-28T04:38:49;7.70;;;2.13;;
13731;SDS011;6937;56.096;12.664;2023-04-28T04:41:14;5.78;;;2.65;;
13731;SDS011;6937;56.096;12.664;2023-04-28T04:43:40;4.78;;;1.90;;
13731;SDS011;6937;56.096;12.664;2023-04-28T04:46:06;7.10;;;2.25;;
13731;SDS011;6937;56.096;12.664;2023-04-28T04:48:31;9.15;;;2.63;;
13731;SDS011;6937;56.096;12.664;2023-04-28T04:50:57;7.03;;;2.50;;
13731;SDS011;6937;56.096;12.664;2023-04-28T04:53:22;5.78;;;2.17;;
13731;SDS011;6937;56.096;12.664;2023-04-28T04:55:47;4.80;;;2.00;;
13731;SDS011;6937;56.096;12.664;2023-04-28T04:58:13;8.35;;;2.67;;
13731;SDS011;6937;56.096;12.664;2023-04-28T05:00:38;5.72;;;2.00;;
13731;SDS011;6937;56.096;12.664;2023-04-28T05:03:04;5.63;;;2.30;;
13731;SDS011;6937;56.096;12.664;2023-04-28T05:05:30;4.30;;;1.90;;
13731;SDS011;6937;56.096;12.664;2023-04-28T05:07:56;6.20;;;2.05;;
13731;SDS011;6937;56.096;12.664;2023-04-28T05:10:23;4.35;;;1.83;;
13731;SDS011;6937;56.096;12.664;2023-04-28T05:12:49;6.43;;;2.38;;
13731;SDS011;6937;56.096;12.664;2023-04-28T05:15:14;7.60;;;1.92;;
13731;SDS011;6937;56.096;12.664;2023-04-28T05:17:40;4.55;;;1.90;;
13731;SDS011;6937;56.096;12.664;2023-04-28T05:20:05;9.10;;;2.28;;
13731;SDS011;6937;56.096;12.664;2023-04-28T05:22:31;8.75;;;2.13;;
13731;SDS011;6937;56.096;12.664;2023-04-28T05:24:57;6.28;;;2.03;;
13731;SDS011;6937;56.096;12.664;2023-04-28T05:27:22;6.70;;;2.10;;
13731;SDS011;6937;56.096;12.664;2023-04-28T05:29:47;9.52;;;2.60;;
13731;SDS011;6937;56.096;12.664;2023-04-28T05:32:13;9.38;;;2.65;;
13731;SDS011;6937;56.096;12.664;2023-04-28T05:34:38;9.18;;;2.88;;
13731;SDS011;6937;56.096;12.664;2023-04-28T05:37:03;6.00;;;2.67;;
13731;SDS011;6937;56.096;12.664;2023-04-28T05:39:29;5.35;;;2.17;;
13731;SDS011;6937;56.096;12.664;2023-04-28T05:41:54;7.43;;;2.47;;
13731;SDS011;6937;56.096;12.664;2023-04-28T05:44:20;6.28;;;2.30;;
13731;SDS011;6937;56.096;12.664;2023-04-28T05:46:45;7.28;;;2.10;;
13731;SDS011;6937;56.096;12.664;2023-04-28T05:49:11;7.95;;;2.45;;
13731;SDS011;6937;56.096;12.664;2023-04-28T05:51:36;6.18;;;2.38;;
13731;SDS011;6937;56.096;12.664;2023-04-28T05:54:02;5.97;;;1.70;;
13731;SDS011;6937;56.096;12.664;2023-04-28T05:56:28;6.85;;;2.35;;
13731;SDS011;6937;56.096;12.664;2023-04-28T05:58:53;9.13;;;2.53;;
13731;SDS011;6937;56.096;12.664;2023-04-28T06:01:19;5.75;;;1.95;;
13731;SDS011;6937;56.096;12.664;2023-04-28T06:03:44;5.93;;;2.10;;
13731;SDS011;6937;56.096;12.664;2023-04-28T06:06:10;7.22;;;2.00;;
13731;SDS011;6937;56.096;12.664;2023-04-28T06:08:36;7.32;;;2.35;;
13731;SDS011;6937;56.096;12.664;2023-04-28T06:11:02;4.97;;;1.60;;
13731;SDS011;6937;56.096;12.664;2023-04-28T06:13:27;5.25;;;2.20;;
13731;SDS011;6937;56.096;12.664;2023-04-28T06:15:53;5.55;;;1.88;;
13731;SDS011;6937;56.096;12.664;2023-04-28T06:18:18;5.90;;;1.92;;
13731;SDS011;6937;56.096;12.664;2023-04-28T06:20:44;4.93;;;2.08;;
13731;SDS011;6937;56.096;12.664;2023-04-28T06:23:09;6.53;;;2.30;;
13731;SDS011;6937;56.096;12.664;2023-04-28T06:25:35;6.72;;;2.33;;
13731;SDS011;6937;56.096;12.664;2023-04-28T06:28:01;5.80;;;1.75;;
13731;SDS011;6937;56.096;12.664;2023-04-28T06:30:27;5.60;;;1.92;;
13731;SDS011;6937;56.096;12.664;2023-04-28T06:32:52;6.55;;;2.28;;
13731;SDS011;6937;56.096;12.664;2023-04-28T06:35:18;5.55;;;2.00;;
13731;SDS011;6937;56.096;12.664;2023-04-28T06:37:43;4.95;;;2.05;;
13731;SDS011;6937;56.096;12.664;2023-04-28T06:40:08;4.53;;;1.65;;
13731;SDS011;6937;56.096;12.664;2023-04-28T06:42:35;4.53;;;1.75;;
13731;SDS011;6937;56.096;12.664;2023-04-28T06:45:00;3.65;;;2.00;;
13731;SDS011;6937;56.096;12.664;2023-04-28T06:47:26;5.22;;;1.92;;
13731;SDS011;6937;56.096;12.664;2023-04-28T06:49:52;6.80;;;2.00;;
13731;SDS011;6937;56.096;12.664;2023-04-28T06:52:18;4.20;;;1.80;;
13731;SDS011;6937;56.096;12.664;2023-04-28T06:54:45;4.97;;;1.80;;
13731;SDS011;6937;56.096;12.664;2023-04-28T06:57:11;7.88;;;1.70;;
13731;SDS011;6937;56.096;12.664;2023-04-28T06:59:36;5.57;;;1.90;;
13731;SDS011;6937;56.096;12.664;2023-04-28T07:02:02;5.15;;;1.80;;
13731;SDS011;6937;56.096;12.664;2023-04-28T07:04:27;6.90;;;2.17;;
13731;SDS011;6937;56.096;12.664;2023-04-28T07:06:52;6.13;;;1.92;;
13731;SDS011;6937;56.096;12.664;2023-04-28T07:09:18;5.55;;;1.90;;
13731;SDS011;6937;56.096;12.664;2023-04-28T07:11:43;5.88;;;2.10;;
13731;SDS011;6937;56.096;12.664;2023-04-28T07:14:09;3.90;;;1.60;;
13731;SDS011;6937;56.096;12.664;2023-04-28T07:16:35;4.38;;;1.73;;
13731;SDS011;6937;56.096;12.664;2023-04-28T07:19:00;4.78;;;1.70;;
13731;SDS011;6937;56.096;12.664;2023-04-28T07:21:26;4.35;;;1.70;;
13731;SDS011;6937;56.096;12.664;2023-04-28T07:23:52;4.38;;;1.60;;
13731;SDS011;6937;56.096;12.664;2023-04-28T07:26:20;4.07;;;1.58;;
13731;SDS011;6937;56.096;12.664;2023-04-28T07:28:46;6.22;;;1.77;;
13731;SDS011;6937;56.096;12.664;2023-04-28T07:31:12;6.20;;;1.70;;
13731;SDS011;6937;56.096;12.664;2023-04-28T07:33:37;6.38;;;2.55;;
13731;SDS011;6937;56.096;12.664;2023-04-28T07:36:02;6.85;;;2.67;;
13731;SDS011;6937;56.096;12.664;2023-04-28T07:38:28;6.07;;;1.77;;
13731;SDS011;6937;56.096;12.664;2023-04-28T07:40:54;7.43;;;1.77;;
13731;SDS011;6937;56.096;12.664;2023-04-28T07:43:19;5.07;;;1.73;;
13731;SDS011;6937;56.096;12.664;2023-04-28T07:45:45;5.47;;;1.77;;
13731;SDS011;6937;56.096;12.664;2023-04-28T07:48:13;7.72;;;2.33;;
13731;SDS011;6937;56.096;12.664;2023-04-28T07:50:39;4.43;;;2.15;;
13731;SDS011;6937;56.096;12.664;2023-04-28T07:53:04;4.90;;;2.03;;
13731;SDS011;6937;56.096;12.664;2023-04-28T07:55:29;5.32;;;2.10;;
13731;SDS011;6937;56.096;12.664;2023-04-28T07:57:55;5.03;;;1.90;;
13731;SDS011;6937;56.096;12.664;2023-04-28T08:00:22;5.63;;;2.05;;
13731;SDS011;6937;56.096;12.664;2023-04-28T08:02:48;5.57;;;1.95;;
13731;SDS011;6937;56.096;12.664;2023-04-28T08:05:14;5.90;;;2.00;;
13731;SDS011;6937;56.096;12.664;2023-04-28T08:07:41;4.75;;;2.17;;
13731;SDS011;6937;56.096;12.664;2023-04-28T08:10:07;8.88;;;2.22;;
13731;SDS011;6937;56.096;12.664;2023-04-28T08:12:34;4.32;;;2.05;;
13731;SDS011;6937;56.096;12.664;2023-04-28T08:14:59;3.38;;;1.80;;
13731;SDS011;6937;56.096;12.664;2023-04-28T08:17:25;3.88;;;1.73;;
13731;SDS011;6937;56.096;12.664;2023-04-28T08:19:50;6.45;;;1.90;;
13731;SDS011;6937;56.096;12.664;2023-04-28T08:22:16;5.82;;;1.83;;
13731;SDS011;6937;56.096;12.664;2023-04-28T08:24:41;3.40;;;1.50;;
13731;SDS011;6937;56.096;12.664;2023-04-28T08:27:06;4.03;;;1.40;;
13731;SDS011;6937;56.096;12.664;2023-04-28T08:29:32;3.55;;;1.80;;
13731;SDS011;6937;56.096;12.664;2023-04-28T08:31:58;5.72;;;3.13;;
13731;SDS011;6937;56.096;12.664;2023-04-28T08:34:25;4.60;;;1.77;;
13731;SDS011;6937;56.096;12.664;2023-04-28T08:36:51;6.03;;;1.90;;
13731;SDS011;6937;56.096;12.664;2023-04-28T08:39:17;3.63;;;1.60;;
13731;SDS011;6937;56.096;12.664;2023-04-28T08:41:44;4.13;;;1.50;;
13731;SDS011;6937;56.096;12.664;2023-04-28T08:44:10;6.47;;;1.67;;
13731;SDS011;6937;56.096;12.664;2023-04-28T08:46:39;4.38;;;1.70;;
13731;SDS011;6937;56.096;12.664;2023-04-28T08:49:06;3.35;;;1.23;;
13731;SDS011;6937;56.096;12.664;2023-04-28T08:51:44;5.28;;;1.60;;
13731;SDS011;6937;56.096;12.664;2023-04-28T08:54:14;2.90;;;1.50;;
13731;SDS011;6937;56.096;12.664;2023-04-28T08:56:40;2.95;;;1.45;;
13731;SDS011;6937;56.096;12.664;2023-04-28T08:59:09;4.15;;;1.52;;
13731;SDS011;6937;56.096;12.664;2023-04-28T09:01:35;3.88;;;1.50;;
13731;SDS011;6937;56.096;12.664;2023-04-28T09:04:01;4.18;;;1.23;;
13731;SDS011;6937;56.096;12.664;2023-04-28T09:06:30;3.15;;;1.27;;
13731;SDS011;6937;56.096;12.664;2023-04-28T09:09:16;4.80;;;1.70;;
13731;SDS011;6937;56.096;12.664;2023-04-28T09:11:52;5.45;;;1.42;;
13731;SDS011;6937;56.096;12.664;2023-04-28T09:14:17;3.53;;;1.55;;
13731;SDS011;6937;56.096;12.664;2023-04-28T09:16:43;3.30;;;1.25;;
13731;SDS011;6937;56.096;12.664;2023-04-28T09:19:08;4.85;;;1.10;;
13731;SDS011;6937;56.096;12.664;2023-04-28T09:21:44;3.72;;;1.38;;
13731;SDS011;6937;56.096;12.664;2023-04-28T09:26:59;3.22;;;1.58;;
13731;SDS011;6937;56.096;12.664;2023-04-28T09:29:26;5.00;;;1.30;;
13731;SDS011;6937;56.096;12.664;2023-04-28T09:31:52;4.38;;;1.30;;
13731;SDS011;6937;56.096;12.664;2023-04-28T09:34:18;4.85;;;1.67;;
13731;SDS011;6937;56.096;12.664;2023-04-28T09:36:44;3.78;;;1.20;;
13731;SDS011;6937;56.096;12.664;2023-04-28T09:39:10;5.68;;;1.30;;
13731;SDS011;6937;56.096;12.664;2023-04-28T09:46:39;4.25;;;1.33;;
13731;SDS011;6937;56.096;12.664;2023-04-28T09:49:04;3.15;;;1.30;;
13731;SDS011;6937;56.096;12.664;2023-04-28T09:51:30;4.63;;;1.40;;
13731;SDS011;6937;56.096;12.664;2023-04-28T09:53:55;3.33;;;1.55;;
13731;SDS011;6937;56.096;12.664;2023-04-28T09:56:24;5.03;;;1.20;;
13731;SDS011;6937;56.096;12.664;2023-04-28T09:58:51;5.55;;;1.73;;
13731;SDS011;6937;56.096;12.664;2023-04-28T10:01:18;2.67;;;1.30;;
13731;SDS011;6937;56.096;12.664;2023-04-28T10:03:43;4.70;;;1.63;;
13731;SDS011;6937;56.096;12.664;2023-04-28T10:06:10;4.50;;;1.52;;
13731;SDS011;6937;56.096;12.664;2023-04-28T10:08:35;3.53;;;1.50;;
13731;SDS011;6937;56.096;12.664;2023-04-28T10:11:01;3.35;;;1.40;;
13731;SDS011;6937;56.096;12.664;2023-04-28T10:13:27;1.55;;;1.00;;
13731;SDS011;6937;56.096;12.664;2023-04-28T10:15:53;1.60;;;1.05;;
13731;SDS011;6937;56.096;12.664;2023-04-28T10:18:19;2.00;;;1.00;;
13731;SDS011;6937;56.096;12.664;2023-04-28T10:20:48;3.85;;;1.20;;
13731;SDS011;6937;56.096;12.664;2023-04-28T10:25:56;3.53;;;1.15;;
13731;SDS011;6937;56.096;12.664;2023-04-28T10:28:23;4.22;;;1.05;;
13731;SDS011;6937;56.096;12.664;2023-04-28T10:33:42;2.10;;;1.00;;
13731;SDS011;6937;56.096;12.664;2023-04-28T10:36:08;1.77;;;0.80;;
13731;SDS011;6937;56.096;12.664;2023-04-28T10:38:34;2.70;;;0.80;;
13731;SDS011;6937;56.096;12.664;2023-04-28T10:41:00;2.47;;;0.70;;
13731;SDS011;6937;56.096;12.664;2023-04-28T10:56:18;1.73;;;0.77;;
13731;SDS011;6937;56.096;12.664;2023-04-28T10:58:58;2.90;;;0.90;;
13731;SDS011;6937;56.096;12.664;2023-04-28T11:03:55;3.38;;;1.42;;
13731;SDS011;6937;56.096;12.664;2023-04-28T11:09:00;3.60;;;1.13;;
13731;SDS011;6937;56.096;12.664;2023-04-28T11:11:30;3.20;;;1.23;;
13731;SDS011;6937;56.096;12.664;2023-04-28T11:19:16;5.97;;;1.92;;
13731;SDS011;6937;56.096;12.664;2023-04-28T11:21:43;2.08;;;1.20;;
13731;SDS011;6937;56.096;12.664;2023-04-28T11:24:10;3.38;;;1.23;;
13731;SDS011;6937;56.096;12.664;2023-04-28T11:26:36;3.80;;;1.10;;
13731;SDS011;6937;56.096;12.664;2023-04-28T11:29:03;4.93;;;1.40;;
13731;SDS011;6937;56.096;12.664;2023-04-28T11:31:28;3.85;;;1.25;;
13731;SDS011;6937;56.096;12.664;2023-04-28T11:33:57;3.55;;;1.48;;
13731;SDS011;6937;56.096;12.664;2023-04-28T11:36:27;3.22;;;1.20;;
13731;SDS011;6937;56.096;12.664;2023-04-28T11:38:55;6.70;;;1.60;;
13731;SDS011;6937;56.096;12.664;2023-04-28T11:41:22;1.65;;;1.00;;
13731;SDS011;6937;56.096;12.664;2023-04-28T11:43:48;3.00;;;1.30;;
13731;SDS011;6937;56.096;12.664;2023-04-28T11:46:17;6.13;;;1.20;;
13731;SDS011;6937;56.096;12.664;2023-04-28T11:48:46;3.83;;;1.67;;
13731;SDS011;6937;56.096;12.664;2023-04-28T11:54:22;3.47;;;1.42;;
13731;SDS011;6937;56.096;12.664;2023-04-28T11:56:49;6.35;;;1.40;;
13731;SDS011;6937;56.096;12.664;2023-04-28T11:59:16;4.43;;;1.80;;
13731;SDS011;6937;56.096;12.664;2023-04-28T12:04:33;4.43;;;1.30;;
13731;SDS011;6937;56.096;12.664;2023-04-28T12:07:06;2.33;;;1.42;;
13731;SDS011;6937;56.096;12.664;2023-04-28T12:09:34;3.08;;;1.10;;
13731;SDS011;6937;56.096;12.664;2023-04-28T12:12:01;3.00;;;1.40;;
13731;SDS011;6937;56.096;12.664;2023-04-28T12:14:29;3.33;;;1.40;;
13731;SDS011;6937;56.096;12.664;2023-04-28T12:16:57;2.85;;;1.50;;
13731;SDS011;6937;56.096;12.664;2023-04-28T12:19:22;4.10;;;1.00;;
13731;SDS011;6937;56.096;12.664;2023-04-28T12:22:01;2.60;;;1.20;;
13731;SDS011;6937;56.096;12.664;2023-04-28T12:24:29;4.07;;;1.40;;
13731;SDS011;6937;56.096;12.664;2023-04-28T12:26:54;2.60;;;1.17;;
13731;SDS011;6937;56.096;12.664;2023-04-28T12:29:38;3.00;;;1.20;;
13731;SDS011;6937;56.096;12.664;2023-04-28T12:32:06;3.13;;;1.25;;
13731;SDS011;6937;56.096;12.664;2023-04-28T12:34:32;2.92;;;1.40;;
13731;SDS011;6937;56.096;12.664;2023-04-28T12:37:01;3.30;;;1.48;;
13731;SDS011;6937;56.096;12.664;2023-04-28T12:39:27;3.53;;;1.70;;
13731;SDS011;6937;56.096;12.664;2023-04-28T12:41:53;6.32;;;1.67;;
13731;SDS011;6937;56.096;12.664;2023-04-28T12:44:23;5.82;;;1.45;;
13731;SDS011;6937;56.096;12.664;2023-04-28T12:46:50;3.63;;;1.50;;
13731;SDS011;6937;56.096;12.664;2023-04-28T12:49:16;4.60;;;1.60;;
13731;SDS011;6937;56.096;12.664;2023-04-28T12:51:41;4.28;;;1.55;;
13731;SDS011;6937;56.096;12.664;2023-04-28T12:54:07;3.65;;;1.48;;
13731;SDS011;6937;56.096;12.664;2023-04-28T12:56:32;3.45;;;1.55;;
13731;SDS011;6937;56.096;12.664;2023-04-28T12:58:58;2.97;;;1.35;;
13731;SDS011;6937;56.096;12.664;2023-04-28T13:01:26;3.58;;;1.40;;
13731;SDS011;6937;56.096;12.664;2023-04-28T13:03:52;3.40;;;1.60;;
13731;SDS011;6937;56.096;12.664;2023-04-28T13:06:18;3.10;;;1.17;;
13731;SDS011;6937;56.096;12.664;2023-04-28T13:08:44;2.63;;;1.27;;
13731;SDS011;6937;56.096;12.664;2023-04-28T13:11:09;2.47;;;1.30;;
13731;SDS011;6937;56.096;12.664;2023-04-28T13:13:35;4.38;;;1.52;;
13731;SDS011;6937;56.096;12.664;2023-04-28T13:16:01;2.15;;;1.30;;
13731;SDS011;6937;56.096;12.664;2023-04-28T13:18:26;3.08;;;1.15;;
13731;SDS011;6937;56.096;12.664;2023-04-28T13:20:51;2.85;;;1.20;;
13731;SDS011;6937;56.096;12.664;2023-04-28T13:23:17;1.77;;;1.10;;
13731;SDS011;6937;56.096;12.664;2023-04-28T13:25:42;1.20;;;0.80;;
13731;SDS011;6937;56.096;12.664;2023-04-28T13:28:08;2.55;;;0.90;;
13731;SDS011;6937;56.096;12.664;2023-04-28T13:30:33;2.22;;;1.00;;
13731;SDS011;6937;56.096;12.664;2023-04-28T13:32:59;1.92;;;0.82;;
13731;SDS011;6937;56.096;12.664;2023-04-28T13:35:24;2.20;;;0.93;;
13731;SDS011;6937;56.096;12.664;2023-04-28T13:37:50;3.30;;;1.13;;
13731;SDS011;6937;56.096;12.664;2023-04-28T13:40:20;3.25;;;1.52;;
13731;SDS011;6937;56.096;12.664;2023-04-28T13:42:46;4.47;;;1.30;;
13731;SDS011;6937;56.096;12.664;2023-04-28T13:45:11;3.50;;;1.25;;
13731;SDS011;6937;56.096;12.664;2023-04-28T13:47:37;2.25;;;1.00;;
13731;SDS011;6937;56.096;12.664;2023-04-28T13:50:02;3.70;;;1.20;;
13731;SDS011;6937;56.096;12.664;2023-04-28T13:52:28;4.25;;;1.75;;
13731;SDS011;6937;56.096;12.664;2023-04-28T13:54:53;5.55;;;1.30;;
13731;SDS011;6937;56.096;12.664;2023-04-28T13:57:18;3.38;;;1.13;;
13731;SDS011;6937;56.096;12.664;2023-04-28T13:59:44;3.60;;;1.00;;
13731;SDS011;6937;56.096;12.664;2023-04-28T14:02:09;2.88;;;1.40;;
13731;SDS011;6937;56.096;12.664;2023-04-28T14:04:35;2.60;;;1.00;;
13731;SDS011;6937;56.096;12.664;2023-04-28T14:07:01;1.60;;;1.00;;
13731;SDS011;6937;56.096;12.664;2023-04-28T14:09:26;3.20;;;1.10;;
13731;SDS011;6937;56.096;12.664;2023-04-28T14:11:52;5.22;;;1.17;;
13731;SDS011;6937;56.096;12.664;2023-04-28T14:14:20;1.60;;;0.82;;
13731;SDS011;6937;56.096;12.664;2023-04-28T14:16:46;2.03;;;0.82;;
13731;SDS011;6937;56.096;12.664;2023-04-28T14:19:12;1.80;;;0.68;;
13731;SDS011;6937;56.096;12.664;2023-04-28T14:21:41;2.65;;;0.80;;
13731;SDS011;6937;56.096;12.664;2023-04-28T14:24:06;1.60;;;0.70;;
13731;SDS011;6937;56.096;12.664;2023-04-28T14:26:33;2.75;;;0.82;;
13731;SDS011;6937;56.096;12.664;2023-04-28T14:28:59;3.40;;;1.00;;
13731;SDS011;6937;56.096;12.664;2023-04-28T14:31:24;2.25;;;1.00;;
13731;SDS011;6937;56.096;12.664;2023-04-28T14:33:50;3.20;;;1.05;;
13731;SDS011;6937;56.096;12.664;2023-04-28T14:36:15;3.75;;;0.95;;
13731;SDS011;6937;56.096;12.664;2023-04-28T14:38:40;4.30;;;1.00;;
13731;SDS011;6937;56.096;12.664;2023-04-28T14:41:06;2.95;;;0.90;;
13731;SDS011;6937;56.096;12.664;2023-04-28T14:43:31;1.23;;;0.65;;
13731;SDS011;6937;56.096;12.664;2023-04-28T14:45:56;2.03;;;0.75;;
13731;SDS011;6937;56.096;12.664;2023-04-28T14:48:22;2.13;;;1.10;;
13731;SDS011;6937;56.096;12.664;2023-04-28T14:50:48;2.72;;;0.73;;
13731;SDS011;6937;56.096;12.664;2023-04-28T14:53:15;1.90;;;1.00;;
13731;SDS011;6937;56.096;12.664;2023-04-28T14:55:40;3.00;;;0.95;;
13731;SDS011;6937;56.096;12.664;2023-04-28T14:58:06;3.83;;;1.38;;
13731;SDS011;6937;56.096;12.664;2023-04-28T15:00:31;6.40;;;2.22;;
13731;SDS011;6937;56.096;12.664;2023-04-28T15:02:57;2.17;;;1.30;;
13731;SDS011;6937;56.096;12.664;2023-04-28T15:05:22;3.90;;;1.45;;
13731;SDS011;6937;56.096;12.664;2023-04-28T15:07:48;6.40;;;1.52;;
13731;SDS011;6937;56.096;12.664;2023-04-28T15:10:13;2.47;;;1.67;;
13731;SDS011;6937;56.096;12.664;2023-04-28T15:12:39;3.00;;;1.40;;
13731;SDS011;6937;56.096;12.664;2023-04-28T15:15:05;3.35;;;1.38;;
13731;SDS011;6937;56.096;12.664;2023-04-28T15:17:31;2.28;;;1.25;;
13731;SDS011;6937;56.096;12.664;2023-04-28T15:19:58;4.00;;;1.42;;
13731;SDS011;6937;56.096;12.664;2023-04-28T15:22:23;3.15;;;1.10;;
13731;SDS011;6937;56.096;12.664;2023-04-28T15:24:49;2.63;;;1.48;;